Santiago de Querétaro, Mexico

7:12 PM CST on February 10, 2016 (GMT -0600)
CEA-EL MARQUES | | Change Station
CLOSE
Current Station
Personal Weather Station
Location: EL Marques, QUERETARO
Elevation: 6129 ft
Nearby Weather Stations

Elev 6129 ft 20.61 °N, 100.33 °W | Updated 10 minutes ago

Mostly Cloudy
Mostly Cloudy
59.4 °F
Feels Like 59.4 °F
N
0.0
Wind Variable Wind from East

Today
High -- | Low -- °F
--% Chance of Precip.
Yesterday
High -- | Low -- °F
Precip. -- in
Pressure 30.39 in
Visibility 7.0 miles
Clouds Scattered Clouds 2000 ft
Scattered Clouds 12000 ft
Mostly Cloudy 25000 ft
Dew Point 44 °F
Humidity 57%
Rainfall 0.00 in
Snow Depth Not available.
7:14 AM 6:37 PM
Waxing Crescent, 8% visible
METAR MMQT 110045Z 07012KT 7SM SCT020 SCT120 BKN250 14/02 A3039 RMK 8/532
Pressure 30.39 in
Visibility 7.0 miles
Clouds Scattered Clouds 2000 ft
Scattered Clouds 12000 ft
Mostly Cloudy 25000 ft
Dew Point 44 °F
Humidity 57%
Rainfall 0.00 in
Snow Depth Not available.
7:14 AM 6:37 PM
Waxing Crescent, 8% visible
METAR MMQT 110045Z 07012KT 7SM SCT020 SCT120 BKN250 14/02 A3039 RMK 8/532

10-Day Weather Forecast

No radar image for this location.
×

Almanac

Astronomy

Feb. 10, 2016 Rise Set
Actual Time
Civil Twilight
Nautical Twilight
Astronomical Twilight
Moon
Length of Visible Light
Length of Day
Tomorrow will be .
, % of the Moon is Illuminated

Today's Extremes

Country Highs Country Lows

Community

WunderPhotos

Upload Photos

1,891,961 photos uploaded!

WunderBlog® & News

Nearby

Air Quality

  Air Quality AQ Index Pollutant
Not available.

Snow Depth

Station Depth Elevation

Earthquake Activity

City Distance Mag. Time & Date
Minimum magnitude displayed is 2.5.

Coastal Water Temperatures

Place Temperature

Stations

Nearby Weather Stations

Station Location Temp. Windchill Dew Point Humidity Wind Precip. Elev Updated Type